Time,TemperatureF,DewpointF,PressureIn,WindDirection,WindDirectionDegrees,WindSpeedMPH,WindSpeedGustMPH,Humidity,HourlyPrecipIn,Conditions,Clouds,dailyrainin,SolarRadiationWatts/m^2,SoftwareType,DateUTC
2013-04-05 00:42:00,51.0,32.0,-100.00,West,275,10.0,18.0,47,-99.99,,,0.00,0.000000,,2013-04-05 07:42:00,
2013-04-05 00:52:00,51.0,32.0,-100.00,West,275,10.0,18.0,47,-99.99,,,0.00,0.000000,,2013-04-05 07:52:00,
2013-04-05 01:02:00,51.0,32.0,-100.00,West,275,10.0,18.0,47,-99.99,,,0.00,0.000000,,2013-04-05 08:02:00,
2013-04-05 01:12:00,51.0,32.0,-100.00,West,275,10.0,18.0,47,-99.99,,,0.00,0.000000,,2013-04-05 08:12:00,
2013-04-05 01:42:00,52.0,30.0,-100.00,NNW,332,3.0,9.0,42,-99.99,,,-99.99,0.000000,,2013-04-05 08:42:00,
2013-04-05 01:52:00,52.0,30.0,-100.00,NNW,332,3.0,9.0,42,-99.99,,,-99.99,0.000000,,2013-04-05 08:52:00,
2013-04-05 02:02:00,52.0,30.0,-100.00,NNW,332,3.0,9.0,42,-99.99,,,-99.99,0.000000,,2013-04-05 09:02:00,
2013-04-05 02:12:00,52.0,30.0,-100.00,NNW,332,3.0,9.0,42,-99.99,,,-99.99,0.000000,,2013-04-05 09:12:00,
2013-04-05 02:42:00,51.0,32.0,-100.00,NW,325,5.0,13.0,48,-99.99,,,0.00,0.000000,,2013-04-05 09:42:00,
2013-04-05 02:53:00,51.0,32.0,-100.00,NW,325,5.0,13.0,48,-99.99,,,0.00,0.000000,,2013-04-05 09:53:00,
2013-04-05 03:02:00,51.0,32.0,-100.00,NW,325,5.0,13.0,48,-99.99,,,0.00,0.000000,,2013-04-05 10:02:00,
2013-04-05 03:12:00,51.0,32.0,-100.00,NW,325,5.0,13.0,48,-99.99,,,0.00,0.000000,,2013-04-05 10:12:00,
2013-04-05 03:42:00,49.0,30.0,-100.00,NNW,327,4.0,6.0,48,-99.99,,,0.00,0.000000,,2013-04-05 10:42:00,
2013-04-05 03:53:00,49.0,30.0,-100.00,NNW,327,4.0,6.0,48,-99.99,,,0.00,0.000000,,2013-04-05 10:53:00,
2013-04-05 04:02:00,49.0,30.0,-100.00,NNW,327,4.0,6.0,48,-99.99,,,0.00,0.000000,,2013-04-05 11:02:00,
2013-04-05 04:12:00,49.0,30.0,-100.00,NNW,327,4.0,6.0,48,-99.99,,,0.00,0.000000,,2013-04-05 11:12:00,
2013-04-05 04:42:00,47.0,29.0,-100.00,WNW,291,5.0,9.0,49,-99.99,,,0.00,0.000000,,2013-04-05 11:42:00,
2013-04-05 04:52:00,47.0,29.0,-100.00,WNW,291,5.0,9.0,49,-99.99,,,0.00,0.000000,,2013-04-05 11:52:00,
2013-04-05 05:02:00,47.0,29.0,-100.00,WNW,291,5.0,9.0,49,-99.99,,,0.00,0.000000,,2013-04-05 12:02:00,
2013-04-05 05:12:00,47.0,29.0,-100.00,WNW,291,5.0,9.0,49,-99.99,,,0.00,0.000000,,2013-04-05 12:12:00,
2013-04-05 06:42:00,36.0,27.0,-100.00,SE,136,4.0,7.0,69,-99.99,,,0.00,0.120000,,2013-04-05 13:42:00,
2013-04-05 06:52:00,36.0,27.0,-100.00,SE,136,4.0,7.0,69,-99.99,,,0.00,0.120000,,2013-04-05 13:52:00,
2013-04-05 07:02:00,36.0,27.0,-100.00,SE,136,4.0,7.0,69,-99.99,,,0.00,0.120000,,2013-04-05 14:02:00,
2013-04-05 07:12:00,36.0,27.0,-100.00,SE,136,4.0,7.0,69,-99.99,,,0.00,0.120000,,2013-04-05 14:12:00,
2013-04-05 07:42:00,41.0,28.0,-100.00,NW,323,1.0,2.0,59,-99.99,,,0.00,92.629997,,2013-04-05 14:42:00,
2013-04-05 07:53:00,41.0,28.0,-100.00,NW,323,1.0,2.0,59,-99.99,,,0.00,92.629997,,2013-04-05 14:53:00,
2013-04-05 08:02:00,41.0,28.0,-100.00,NW,323,1.0,2.0,59,-99.99,,,0.00,92.629997,,2013-04-05 15:02:00,
2013-04-05 08:12:00,41.0,28.0,-100.00,NW,323,1.0,2.0,59,-99.99,,,0.00,92.629997,,2013-04-05 15:12:00,
2013-04-05 08:42:00,50.0,30.0,-100.00,NNW,340,1.0,3.0,45,-99.99,,,0.00,263.239990,,2013-04-05 15:42:00,
2013-04-05 08:53:00,50.0,30.0,-100.00,NNW,340,1.0,3.0,45,-99.99,,,0.00,263.239990,,2013-04-05 15:53:00,
2013-04-05 09:02:00,50.0,30.0,-100.00,NNW,340,1.0,3.0,45,-99.99,,,0.00,263.239990,,2013-04-05 16:02:00,
2013-04-05 09:13:00,50.0,30.0,-100.00,NNW,340,1.0,3.0,45,-99.99,,,0.00,263.239990,,2013-04-05 16:13:00,
2013-04-05 09:42:00,53.0,29.0,-100.00,WNW,297,6.0,9.0,40,-99.99,,,0.00,498.350006,,2013-04-05 16:42:00,
2013-04-05 09:53:00,53.0,29.0,-100.00,WNW,297,6.0,9.0,40,-99.99,,,0.00,498.350006,,2013-04-05 16:53:00,
2013-04-05 10:02:00,53.0,29.0,-100.00,WNW,297,6.0,9.0,40,-99.99,,,0.00,498.350006,,2013-04-05 17:02:00,
2013-04-05 10:12:00,53.0,29.0,-100.00,WNW,297,6.0,9.0,40,-99.99,,,0.00,498.350006,,2013-04-05 17:12:00,
2013-04-05 10:45:00,56.0,28.0,-100.00,SSW,206,3.0,14.0,33,-99.99,,,0.00,675.700012,,2013-04-05 17:45:00,
2013-04-05 10:52:00,56.0,28.0,-100.00,SSW,206,3.0,14.0,33,-99.99,,,0.00,675.700012,,2013-04-05 17:52:00,
2013-04-05 11:02:00,56.0,28.0,-100.00,SSW,206,3.0,14.0,33,-99.99,,,0.00,675.700012,,2013-04-05 18:02:00,
2013-04-05 11:12:00,56.0,28.0,-100.00,SSW,206,3.0,14.0,33,-99.99,,,0.00,675.700012,,2013-04-05 18:12:00,
2013-04-05 11:42:00,57.0,26.0,-100.00,NW,306,4.0,10.0,30,-99.99,,,0.00,806.570007,,2013-04-05 18:42:00,
2013-04-05 11:52:00,57.0,26.0,-100.00,NW,306,4.0,10.0,30,-99.99,,,0.00,806.570007,,2013-04-05 18:52:00,
2013-04-05 12:02:00,57.0,26.0,-100.00,NW,306,4.0,10.0,30,-99.99,,,0.00,806.570007,,2013-04-05 19:02:00,
2013-04-05 12:12:00,57.0,26.0,-100.00,NW,306,4.0,10.0,30,-99.99,,,0.00,806.570007,,2013-04-05 19:12:00,
2013-04-05 12:42:00,60.0,24.0,-100.00,SW,224,7.0,13.0,24,-99.99,,,0.00,850.729980,,2013-04-05 19:42:00,
2013-04-05 12:52:00,60.0,24.0,-100.00,SW,224,7.0,13.0,24,-99.99,,,0.00,850.729980,,2013-04-05 19:52:00,
2013-04-05 13:02:00,60.0,24.0,-100.00,SW,224,7.0,13.0,24,-99.99,,,0.00,850.729980,,2013-04-05 20:02:00,
2013-04-05 13:10:00,60.0,24.0,-100.00,SW,224,7.0,13.0,24,-99.99,,,0.00,850.729980,,2013-04-05 20:10:00,
2013-04-05 13:32:00,63.0,24.0,-100.00,SSW,208,7.0,15.0,22,-99.99,,,0.00,886.760010,,2013-04-05 20:32:00,
2013-04-05 13:42:00,63.0,24.0,-100.00,SSW,208,7.0,15.0,22,-99.99,,,0.00,886.760010,,2013-04-05 20:42:00,
2013-04-05 13:52:00,63.0,24.0,-100.00,SSW,208,7.0,15.0,22,-99.99,,,0.00,886.760010,,2013-04-05 20:52:00,
2013-04-05 14:02:00,63.0,24.0,-100.00,SSW,208,7.0,15.0,22,-99.99,,,0.00,886.760010,,2013-04-05 21:02:00,
2013-04-05 14:12:00,63.0,24.0,-100.00,SSW,208,7.0,15.0,22,-99.99,,,0.00,886.760010,,2013-04-05 21:12:00,
2013-04-05 14:42:00,65.0,19.0,-100.00,SSW,201,5.0,15.0,17,-99.99,,,0.00,886.760010,,2013-04-05 21:42:00,
2013-04-05 14:54:00,65.0,19.0,-100.00,SSW,201,5.0,15.0,17,-99.99,,,0.00,886.760010,,2013-04-05 21:54:00,
2013-04-05 15:03:00,65.0,19.0,-100.00,SSW,201,5.0,15.0,17,-99.99,,,0.00,886.760010,,2013-04-05 22:03:00,
2013-04-05 15:12:00,65.0,19.0,-100.00,SSW,201,5.0,15.0,17,-99.99,,,0.00,886.760010,,2013-04-05 22:12:00,
2013-04-05 15:42:00,67.0,17.0,-100.00,WSW,252,6.0,16.0,14,-99.99,,,0.00,771.820007,,2013-04-05 22:42:00,
2013-04-05 15:53:00,67.0,17.0,-100.00,WSW,252,6.0,16.0,14,-99.99,,,0.00,771.820007,,2013-04-05 22:53:00,
2013-04-05 16:02:00,67.0,17.0,-100.00,WSW,252,6.0,16.0,14,-99.99,,,0.00,771.820007,,2013-04-05 23:02:00,
2013-04-05 16:12:00,67.0,17.0,-100.00,WSW,252,6.0,16.0,14,-99.99,,,0.00,771.820007,,2013-04-05 23:12:00,
2013-04-05 16:42:00,67.0,18.0,-100.00,West,279,7.0,16.0,15,-99.99,,,0.00,543.210022,,2013-04-05 23:42:00,
2013-04-05 16:52:00,67.0,18.0,-100.00,West,279,7.0,16.0,15,-99.99,,,0.00,543.210022,,2013-04-05 23:52:00,
2013-04-05 17:02:00,67.0,18.0,-100.00,West,279,7.0,16.0,15,-99.99,,,0.00,543.210022,,2013-04-06 00:02:00,
2013-04-05 17:12:00,67.0,18.0,-100.00,West,279,7.0,16.0,15,-99.99,,,0.00,543.210022,,2013-04-06 00:12:00,
2013-04-05 18:42:00,63.0,20.0,-100.00,West,274,13.0,22.0,19,-99.99,,,0.00,80.419998,,2013-04-06 01:42:00,
2013-04-05 18:53:00,63.0,20.0,-100.00,West,274,13.0,22.0,19,-99.99,,,0.00,80.419998,,2013-04-06 01:53:00,
2013-04-05 19:02:00,63.0,20.0,-100.00,West,274,13.0,22.0,19,-99.99,,,0.00,80.419998,,2013-04-06 02:02:00,
2013-04-05 19:12:00,63.0,20.0,-100.00,West,274,13.0,22.0,19,-99.99,,,0.00,80.419998,,2013-04-06 02:12:00,
2013-04-05 19:42:00,59.0,21.0,-100.00,West,268,12.0,22.0,22,-99.99,,,0.00,8.370000,,2013-04-06 02:42:00,
2013-04-05 19:52:00,59.0,21.0,-100.00,West,268,12.0,22.0,22,-99.99,,,0.00,8.370000,,2013-04-06 02:52:00,
2013-04-05 20:02:00,59.0,21.0,-100.00,West,268,12.0,22.0,22,-99.99,,,0.00,8.370000,,2013-04-06 03:02:00,
2013-04-05 20:12:00,59.0,21.0,-100.00,West,268,12.0,22.0,22,-99.99,,,0.00,8.370000,,2013-04-06 03:12:00,
2013-04-05 20:42:00,57.0,25.0,-100.00,WNW,294,11.0,17.0,28,-99.99,,,0.00,0.000000,,2013-04-06 03:42:00,
2013-04-05 20:54:00,57.0,25.0,-100.00,WNW,294,11.0,17.0,28,-99.99,,,0.00,0.000000,,2013-04-06 03:54:00,
2013-04-05 21:03:00,57.0,25.0,-100.00,WNW,294,11.0,17.0,28,-99.99,,,0.00,0.000000,,2013-04-06 04:03:00,
2013-04-05 21:13:00,57.0,25.0,-100.00,WNW,294,11.0,17.0,28,-99.99,,,0.00,0.000000,,2013-04-06 04:13:00,
2013-04-05 21:42:00,57.0,21.0,-100.00,WNW,296,12.0,18.0,25,-99.99,,,0.00,0.000000,,2013-04-06 04:42:00,
2013-04-05 21:53:00,57.0,21.0,-100.00,WNW,296,12.0,18.0,25,-99.99,,,0.00,0.000000,,2013-04-06 04:53:00,
2013-04-05 22:02:00,57.0,21.0,-100.00,WNW,296,12.0,18.0,25,-99.99,,,0.00,0.000000,,2013-04-06 05:02:00,
2013-04-05 22:12:00,57.0,21.0,-100.00,WNW,296,12.0,18.0,25,-99.99,,,0.00,0.000000,,2013-04-06 05:12:00,
2013-04-05 22:42:00,56.0,22.0,-100.00,West,273,10.0,19.0,26,-99.99,,,0.00,0.000000,,2013-04-06 05:42:00,
2013-04-05 22:52:00,56.0,22.0,-100.00,West,273,10.0,19.0,26,-99.99,,,0.00,0.000000,,2013-04-06 05:52:00,
2013-04-05 23:02:00,56.0,22.0,-100.00,West,273,10.0,19.0,26,-99.99,,,0.00,0.000000,,2013-04-06 06:02:00,
2013-04-05 23:12:00,56.0,22.0,-100.00,West,273,10.0,19.0,26,-99.99,,,0.00,0.000000,,2013-04-06 06:12:00,
2013-04-05 23:42:00,54.0,24.0,-100.00,West,267,7.0,17.0,31,-99.99,,,0.00,0.000000,,2013-04-06 06:42:00,
2013-04-05 23:52:00,54.0,24.0,-100.00,West,267,7.0,17.0,31,-99.99,,,0.00,0.000000,,2013-04-06 06:52:00,